createdAt,value
2023-04-30T00:01:11.528Z,19541.50
2023-04-30T00:03:39.762Z,19537.44
2023-04-30T00:06:09.349Z,19547.59
2023-04-30T00:08:37.511Z,19496.81
2023-04-30T00:11:05.935Z,19488.69
2023-04-30T00:13:34.636Z,19525.25
2023-04-30T00:16:02.797Z,19498.84
2023-04-30T00:18:30.992Z,19511.03
2023-04-30T00:20:59.079Z,19504.94
2023-04-30T00:23:28.554Z,19496.81
2023-04-30T00:25:56.686Z,19525.25
2023-04-30T00:28:24.808Z,19515.09
2023-04-30T00:30:52.914Z,19529.31
2023-04-30T00:33:21.060Z,19480.53
2023-04-30T00:35:49.231Z,19525.25
2023-04-30T00:38:17.308Z,19517.13
2023-04-30T00:40:48.227Z,19506.97
2023-04-30T00:43:16.344Z,19478.50
2023-04-30T00:45:44.459Z,19456.16
2023-04-30T00:48:12.769Z,19448.03
2023-04-30T00:50:42.768Z,19448.03
2023-04-30T00:53:11.618Z,19464.28
2023-04-30T00:55:40.608Z,19460.22
2023-04-30T00:58:10.644Z,19427.72
2023-04-30T01:00:39.004Z,19474.44
2023-04-30T01:03:07.284Z,19474.44
2023-04-30T01:05:35.506Z,19429.75
2023-04-30T01:08:03.719Z,19452.09
2023-04-30T01:10:43.237Z,19446.00
2023-04-30T01:13:22.562Z,19423.66
2023-04-30T01:16:08.123Z,19435.84
2023-04-30T01:18:47.757Z,19401.28
2023-04-30T01:21:20.444Z,19439.91
2023-04-30T01:24:22.204Z,19415.50
2023-04-30T01:27:07.992Z,19409.41
2023-04-30T01:29:42.510Z,19385.03
2023-04-30T01:32:11.900Z,19391.13
2023-04-30T01:34:40.315Z,19421.63
2023-04-30T01:37:22.786Z,19433.81
2023-04-30T01:40:09.745Z,19450.06
2023-04-30T01:42:48.605Z,19464.28
2023-04-30T01:45:42.243Z,19397.22
2023-04-30T01:48:29.118Z,19427.72
2023-04-30T01:51:10.421Z,19376.91
2023-04-30T01:53:43.545Z,19439.91
2023-04-30T01:56:22.727Z,19431.78
2023-04-30T01:58:53.959Z,19413.47
2023-04-30T02:01:32.328Z,19383.00
2023-04-30T02:04:01.289Z,19419.59
2023-04-30T02:06:30.274Z,19403.31
2023-04-30T02:09:03.186Z,19407.38
2023-04-30T02:11:31.605Z,19364.72
2023-04-30T02:13:59.712Z,19413.47
2023-04-30T02:16:29.240Z,19415.50
2023-04-30T02:18:57.394Z,19452.09
2023-04-30T02:21:25.608Z,19405.34
2023-04-30T02:23:53.919Z,19399.25
2023-04-30T02:26:22.191Z,19393.16
2023-04-30T02:28:51.355Z,19354.56
2023-04-30T02:31:19.596Z,19405.34
2023-04-30T02:33:49.100Z,19399.25
2023-04-30T02:36:17.189Z,19358.63
2023-04-30T02:38:45.298Z,19366.75
2023-04-30T02:41:13.413Z,19344.41
2023-04-30T02:43:41.486Z,19344.41
2023-04-30T02:46:09.638Z,19350.50
2023-04-30T02:48:37.717Z,19362.69
2023-04-30T02:51:07.457Z,19332.19
2023-04-30T02:53:35.547Z,19374.88
2023-04-30T02:56:03.623Z,19334.22
2023-04-30T02:58:31.784Z,19354.56
2023-04-30T03:00:59.947Z,19354.56
2023-04-30T03:03:28.144Z,19372.84
2023-04-30T03:05:59.377Z,19330.16
2023-04-30T03:08:28.996Z,19366.75
2023-04-30T03:10:57.152Z,19346.44
2023-04-30T03:13:26.666Z,19352.53
2023-04-30T03:16:00.148Z,19372.84
2023-04-30T03:18:29.431Z,19370.81
2023-04-30T03:20:58.347Z,19326.09
2023-04-30T03:23:29.088Z,19338.28
2023-04-30T03:25:57.198Z,19307.81
2023-04-30T03:28:25.321Z,19322.03
2023-04-30T03:30:53.893Z,19332.19
2023-04-30T03:33:22.407Z,19334.22
2023-04-30T03:35:51.614Z,19320.00
2023-04-30T03:38:19.822Z,19336.25
2023-04-30T03:40:49.265Z,19291.56
2023-04-30T03:43:17.337Z,19301.72
2023-04-30T03:45:45.749Z,19324.06
2023-04-30T03:48:14.288Z,19273.28
2023-04-30T03:50:42.515Z,19307.81
2023-04-30T03:53:10.636Z,19297.66
2023-04-30T03:55:38.905Z,19315.94
2023-04-30T03:58:08.426Z,19301.72
2023-04-30T04:00:36.750Z,19299.69
2023-04-30T04:03:05.230Z,19317.97
2023-04-30T04:05:33.473Z,19305.78
2023-04-30T04:08:01.593Z,19338.28
2023-04-30T04:10:30.035Z,19354.56
2023-04-30T04:12:58.089Z,19358.63
2023-04-30T04:15:27.650Z,19358.63
2023-04-30T04:17:56.004Z,19334.22
2023-04-30T04:20:24.127Z,19301.72
2023-04-30T04:22:52.211Z,19311.88
2023-04-30T04:25:20.748Z,19317.97
2023-04-30T04:27:48.806Z,19332.19
2023-04-30T04:30:16.956Z,19285.47
2023-04-30T04:32:48.311Z,19330.16
2023-04-30T04:35:17.015Z,19336.25
2023-04-30T04:37:45.120Z,19315.94
2023-04-30T04:40:14.040Z,19336.25
2023-04-30T04:42:42.308Z,19360.66
2023-04-30T04:45:12.126Z,19366.75
2023-04-30T04:47:40.324Z,19348.47
2023-04-30T04:50:11.328Z,19376.91
2023-04-30T04:52:39.834Z,19383.00
2023-04-30T04:55:09.241Z,19374.88
2023-04-30T04:57:37.345Z,19358.63
2023-04-30T05:00:08.099Z,19409.41
2023-04-30T05:02:36.422Z,19429.75
2023-04-30T05:05:04.844Z,19415.50
2023-04-30T05:07:35.001Z,19492.75
2023-04-30T05:10:03.115Z,19513.06
2023-04-30T05:12:31.247Z,19506.97
2023-04-30T05:14:59.409Z,19466.31
2023-04-30T05:17:27.559Z,19517.13
2023-04-30T05:19:55.841Z,19468.34
2023-04-30T05:22:24.390Z,19472.41
2023-04-30T05:24:53.824Z,19511.03
2023-04-30T05:27:22.086Z,19515.09
2023-04-30T05:29:50.193Z,19537.44
2023-04-30T05:32:18.319Z,19468.34
2023-04-30T05:34:46.463Z,19533.38
2023-04-30T05:37:14.969Z,19523.22
2023-04-30T05:39:43.099Z,19543.53
2023-04-30T05:42:12.593Z,19539.47
2023-04-30T05:44:41.455Z,19586.22
2023-04-30T05:47:09.689Z,19561.84
2023-04-30T05:49:37.777Z,19586.22
2023-04-30T05:52:06.468Z,19604.50
2023-04-30T05:54:34.842Z,19578.09
2023-04-30T05:57:02.949Z,19622.81
2023-04-30T05:59:32.407Z,19630.94
2023-04-30T06:02:00.539Z,19643.13
2023-04-30T06:04:29.453Z,19673.59
2023-04-30T06:06:57.589Z,19675.63
2023-04-30T06:09:25.885Z,19630.94
2023-04-30T06:11:55.753Z,19651.25
2023-04-30T06:14:24.385Z,19655.31
2023-04-30T06:16:54.266Z,19671.56
2023-04-30T06:19:22.449Z,19612.63
2023-04-30T06:21:50.506Z,19661.41
2023-04-30T06:24:18.601Z,19628.91
2023-04-30T06:26:46.830Z,19663.44
2023-04-30T06:29:14.938Z,19695.97
2023-04-30T06:31:43.095Z,19736.59
2023-04-30T06:34:12.554Z,19683.78
2023-04-30T06:36:40.611Z,19691.91
2023-04-30T06:39:08.781Z,19716.28
2023-04-30T06:41:36.926Z,19706.13
2023-04-30T06:44:05.302Z,19704.09
2023-04-30T06:46:34.653Z,19673.59
2023-04-30T06:49:02.969Z,19687.84
2023-04-30T06:51:32.429Z,19671.56
2023-04-30T06:54:00.682Z,19704.09
2023-04-30T06:56:28.846Z,19693.94
2023-04-30T06:58:56.959Z,19761.00
2023-04-30T07:01:25.080Z,19815.88
2023-04-30T07:03:55.063Z,19817.91
2023-04-30T07:06:23.457Z,19891.06
2023-04-30T07:08:53.044Z,19899.19
2023-04-30T07:11:21.237Z,19925.63
2023-04-30T07:13:49.324Z,19956.09
2023-04-30T07:16:17.780Z,19952.03
2023-04-30T07:18:48.762Z,19927.66
2023-04-30T07:21:16.946Z,19887.00
2023-04-30T07:23:45.559Z,19856.53
2023-04-30T07:26:15.872Z,19858.56
2023-04-30T07:28:44.287Z,19935.78
2023-04-30T07:31:12.700Z,19874.81
2023-04-30T07:33:40.846Z,19903.25
2023-04-30T07:36:09.211Z,19903.25
2023-04-30T07:38:37.592Z,19954.06
2023-04-30T07:41:06.273Z,19964.25
2023-04-30T07:43:35.765Z,19964.25
2023-04-30T07:46:04.346Z,19998.78
2023-04-30T07:48:32.662Z,19986.59
2023-04-30T07:51:00.855Z,19954.06
2023-04-30T07:53:29.172Z,19954.06
2023-04-30T07:55:57.323Z,19921.56
2023-04-30T07:58:25.536Z,19903.25
2023-04-30T08:00:55.151Z,19862.63
2023-04-30T08:03:23.343Z,19824.00
2023-04-30T08:05:51.477Z,19856.53
2023-04-30T08:08:19.631Z,19826.03
2023-04-30T08:10:47.725Z,19850.41
2023-04-30T08:13:16.128Z,19848.38
2023-04-30T08:15:44.228Z,19850.41
2023-04-30T08:18:13.762Z,19882.94
2023-04-30T08:20:42.049Z,19870.75
2023-04-30T08:23:10.697Z,19860.59
2023-04-30T08:25:38.805Z,19878.88
2023-04-30T08:28:07.919Z,19901.22
2023-04-30T08:30:36.035Z,19880.91
2023-04-30T08:33:04.316Z,19862.63
2023-04-30T08:35:33.842Z,19927.66
2023-04-30T08:38:01.919Z,19854.50
2023-04-30T08:40:49.383Z,19860.59
2023-04-30T08:43:20.276Z,19840.25
2023-04-30T08:45:51.959Z,19905.28
2023-04-30T08:48:24.695Z,19891.06
2023-04-30T08:50:54.211Z,19919.53
2023-04-30T08:53:23.190Z,19937.81
2023-04-30T08:55:51.382Z,19919.53
2023-04-30T08:58:19.591Z,19952.03
2023-04-30T09:00:47.687Z,19972.38
2023-04-30T09:03:16.226Z,19960.16
2023-04-30T09:05:44.418Z,19952.03
2023-04-30T09:08:20.250Z,19947.97
2023-04-30T09:10:48.412Z,19964.25
2023-04-30T09:13:16.926Z,19986.59
2023-04-30T09:15:45.857Z,20013.00
2023-04-30T09:18:17.678Z,20010.97
2023-04-30T09:20:57.661Z,20041.47
2023-04-30T09:23:27.261Z,20061.78
2023-04-30T09:25:55.780Z,20071.97
2023-04-30T09:28:25.377Z,20033.34
2023-04-30T09:30:54.471Z,20051.63
2023-04-30T09:33:22.616Z,20025.22
2023-04-30T09:35:50.729Z,20071.97
2023-04-30T09:38:31.912Z,20120.75
2023-04-30T09:41:02.384Z,20094.31
2023-04-30T09:43:31.214Z,20120.75
2023-04-30T09:46:00.783Z,20071.97
2023-04-30T09:48:29.306Z,20098.38
2023-04-30T09:50:57.727Z,20163.41
2023-04-30T09:53:25.892Z,20098.38
2023-04-30T09:55:59.320Z,20112.59
2023-04-30T09:58:30.183Z,20112.59
2023-04-30T10:01:04.221Z,20082.13
2023-04-30T10:03:34.093Z,20108.53
2023-04-30T10:06:02.809Z,20061.78
2023-04-30T10:08:37.361Z,20104.47
2023-04-30T10:11:09.558Z,20100.41
2023-04-30T10:13:45.802Z,20132.94
2023-04-30T10:16:24.651Z,20147.16
2023-04-30T10:18:55.507Z,20157.31
2023-04-30T10:21:27.861Z,20120.75
2023-04-30T10:23:57.127Z,20149.19
2023-04-30T10:26:26.897Z,20139.03
2023-04-30T10:28:58.957Z,20161.38
2023-04-30T10:31:29.022Z,20151.22
2023-04-30T10:34:14.707Z,20200.00
2023-04-30T10:36:48.610Z,20200.00
2023-04-30T10:39:20.049Z,20265.03
2023-04-30T10:41:50.036Z,20265.03
2023-04-30T10:44:24.087Z,20204.06
2023-04-30T10:47:01.380Z,20220.34
2023-04-30T10:49:30.119Z,20232.53
2023-04-30T10:52:03.623Z,20204.06
2023-04-30T10:54:38.139Z,20208.13
2023-04-30T10:57:17.565Z,20283.34
2023-04-30T10:59:54.001Z,20248.78
2023-04-30T11:02:22.669Z,20305.69
2023-04-30T11:05:11.501Z,20240.66
2023-04-30T11:07:49.755Z,20250.81
2023-04-30T11:10:21.955Z,20242.69
2023-04-30T11:12:52.977Z,20240.66
2023-04-30T11:15:25.936Z,20232.53
2023-04-30T11:17:59.509Z,20246.75
2023-04-30T11:20:28.973Z,20246.75
2023-04-30T11:23:19.178Z,20267.09
2023-04-30T11:25:57.760Z,20256.91
2023-04-30T11:28:29.621Z,20248.78
2023-04-30T11:30:59.937Z,20248.78
2023-04-30T11:33:30.358Z,20269.13
2023-04-30T11:36:01.044Z,20271.16
2023-04-30T11:38:31.085Z,20252.84
2023-04-30T11:41:00.379Z,20281.31
2023-04-30T11:43:32.076Z,20267.09
2023-04-30T11:46:07.236Z,20244.72
2023-04-30T11:48:37.452Z,20309.75
2023-04-30T11:51:15.172Z,20315.88
2023-04-30T11:53:44.042Z,20305.69
2023-04-30T11:56:12.266Z,20319.94
2023-04-30T11:58:41.783Z,20313.84
2023-04-30T12:01:10.951Z,20275.22
2023-04-30T12:03:44.484Z,20287.41
2023-04-30T12:06:14.154Z,20354.47
2023-04-30T12:08:43.880Z,20356.50
2023-04-30T12:11:25.352Z,20364.66
2023-04-30T12:13:58.050Z,20393.09
2023-04-30T12:16:26.848Z,20370.75
2023-04-30T12:18:55.481Z,20437.81
2023-04-30T12:21:24.281Z,20358.56
2023-04-30T12:23:52.537Z,20431.72
2023-04-30T12:26:21.010Z,20376.84
2023-04-30T12:28:49.688Z,20374.81
2023-04-30T12:31:20.140Z,20344.31
2023-04-30T12:33:56.400Z,20425.63
2023-04-30T12:36:31.518Z,20401.22
2023-04-30T12:39:10.598Z,20393.09
2023-04-30T12:41:42.851Z,20443.91
2023-04-30T12:44:23.278Z,20409.38
2023-04-30T12:46:56.370Z,20443.91
2023-04-30T12:49:29.546Z,20407.34
2023-04-30T12:52:03.914Z,20382.94
2023-04-30T12:54:33.555Z,20447.97
2023-04-30T12:57:04.868Z,20415.47
2023-04-30T12:59:35.895Z,20413.44
2023-04-30T13:02:10.108Z,20478.47
2023-04-30T13:04:38.778Z,20445.94
2023-04-30T13:07:06.944Z,20464.25
2023-04-30T13:09:36.564Z,20472.38
2023-04-30T13:12:06.359Z,20468.31
2023-04-30T13:14:35.235Z,20492.72
2023-04-30T13:17:05.810Z,20468.31
2023-04-30T13:19:35.577Z,20478.47
2023-04-30T13:22:03.713Z,20460.19
2023-04-30T13:24:32.100Z,20474.41
2023-04-30T13:27:00.271Z,20431.72
2023-04-30T13:29:28.381Z,20460.19
2023-04-30T13:31:56.629Z,20527.25
2023-04-30T13:34:24.851Z,20517.09
2023-04-30T13:36:54.697Z,20496.78
2023-04-30T13:39:23.362Z,20447.97
2023-04-30T13:41:51.445Z,20504.91
2023-04-30T13:44:19.559Z,20468.31
2023-04-30T13:46:47.757Z,20500.84
2023-04-30T13:49:15.957Z,20535.41
2023-04-30T13:51:44.187Z,20513.03
2023-04-30T13:54:13.634Z,20496.78
2023-04-30T13:56:41.752Z,20498.81
2023-04-30T13:59:09.874Z,20521.16
2023-04-30T14:01:37.983Z,20500.84
2023-04-30T14:04:06.513Z,20547.59
2023-04-30T14:06:34.926Z,20517.09
2023-04-30T14:09:03.114Z,20523.19
2023-04-30T14:11:33.479Z,20513.03
2023-04-30T14:14:01.618Z,20502.88
2023-04-30T14:16:30.437Z,20535.41
2023-04-30T14:18:58.677Z,20502.88
2023-04-30T14:21:27.506Z,20519.13
2023-04-30T14:23:56.477Z,20504.91
2023-04-30T14:26:24.603Z,20541.50
2023-04-30T14:28:54.121Z,20543.53
2023-04-30T14:31:22.221Z,20482.53
2023-04-30T14:33:50.348Z,20490.66
2023-04-30T14:36:18.528Z,20531.31
2023-04-30T14:38:46.682Z,20498.81
2023-04-30T14:41:14.803Z,20506.94
2023-04-30T14:43:42.975Z,20578.09
2023-04-30T14:46:12.727Z,20508.97
2023-04-30T14:48:40.885Z,20500.84
2023-04-30T14:51:09.145Z,20537.44
2023-04-30T14:53:37.451Z,20513.03
2023-04-30T14:56:07.104Z,20529.28
2023-04-30T14:58:35.245Z,20523.19
2023-04-30T15:01:03.403Z,20517.09
2023-04-30T15:03:32.999Z,20484.56
2023-04-30T15:06:01.293Z,20478.47
2023-04-30T15:08:29.406Z,20525.22
2023-04-30T15:10:57.856Z,20529.28
2023-04-30T15:13:26.442Z,20545.56
2023-04-30T15:15:54.794Z,20521.16
2023-04-30T15:18:22.961Z,20511.00
2023-04-30T15:20:52.406Z,20539.47
2023-04-30T15:23:20.846Z,20519.13
2023-04-30T15:25:49.358Z,20500.84
2023-04-30T15:28:17.627Z,20484.56
2023-04-30T15:30:45.731Z,20502.88
2023-04-30T15:33:13.828Z,20541.50
2023-04-30T15:35:42.068Z,20504.91
2023-04-30T15:38:11.436Z,20500.84
2023-04-30T15:40:39.578Z,20506.94
2023-04-30T15:43:07.820Z,20500.84
2023-04-30T15:45:36.022Z,20431.72
2023-04-30T15:48:04.728Z,20462.22
2023-04-30T15:50:32.934Z,20500.84
2023-04-30T15:53:01.104Z,20498.81
2023-04-30T15:55:30.748Z,20468.31
2023-04-30T15:57:58.811Z,20415.47
2023-04-30T16:00:27.234Z,20492.72
2023-04-30T16:02:55.565Z,20439.84
2023-04-30T16:05:23.890Z,20478.47
2023-04-30T16:07:54.387Z,20474.41
2023-04-30T16:10:22.611Z,20445.94
2023-04-30T16:12:52.374Z,20443.91
2023-04-30T16:15:20.652Z,20382.94
2023-04-30T16:17:48.809Z,20380.91
2023-04-30T16:20:17.042Z,20403.25
2023-04-30T16:22:45.248Z,20429.69
2023-04-30T16:25:13.332Z,20431.72
2023-04-30T16:27:41.848Z,20362.63
2023-04-30T16:30:12.448Z,20344.31
2023-04-30T16:32:40.652Z,20378.88
2023-04-30T16:35:10.426Z,20389.03
2023-04-30T16:37:38.583Z,20352.44
2023-04-30T16:40:08.515Z,20387.00
2023-04-30T16:42:36.820Z,20374.81
2023-04-30T16:45:05.735Z,20382.94
2023-04-30T16:47:35.240Z,20441.88
2023-04-30T16:50:03.648Z,20356.50
2023-04-30T16:52:33.178Z,20328.06
2023-04-30T16:55:01.463Z,20307.72
2023-04-30T16:57:29.652Z,20332.13
2023-04-30T16:59:58.029Z,20344.31
2023-04-30T17:02:26.423Z,20328.06
2023-04-30T17:04:56.959Z,20332.13
2023-04-30T17:07:25.536Z,20342.28
2023-04-30T17:09:54.545Z,20364.66
2023-04-30T17:12:22.991Z,20313.84
2023-04-30T17:14:52.005Z,20352.44
2023-04-30T17:17:20.721Z,20328.06
2023-04-30T17:19:48.898Z,20321.97
2023-04-30T17:22:20.046Z,20258.94
2023-04-30T17:24:48.319Z,20256.91
2023-04-30T17:27:16.701Z,20277.25
2023-04-30T17:29:44.879Z,20271.16
2023-04-30T17:32:13.322Z,20212.19
2023-04-30T17:34:42.373Z,20238.63
2023-04-30T17:37:10.517Z,20226.44
2023-04-30T17:39:40.036Z,20321.97
2023-04-30T17:42:08.173Z,20263.00
2023-04-30T17:44:36.296Z,20202.03
2023-04-30T17:47:05.597Z,20228.47
2023-04-30T17:49:34.022Z,20260.97
2023-04-30T17:52:02.483Z,20230.50
2023-04-30T17:54:31.398Z,20240.66
2023-04-30T17:57:01.116Z,20228.47
2023-04-30T17:59:30.879Z,20254.88
2023-04-30T18:01:59.614Z,20287.41
2023-04-30T18:04:27.815Z,20187.81
2023-04-30T18:06:55.953Z,20151.22
2023-04-30T18:09:24.619Z,20169.53
2023-04-30T18:11:53.091Z,20200.00
2023-04-30T18:14:22.815Z,20185.78
2023-04-30T18:16:51.412Z,20128.88
2023-04-30T18:19:19.594Z,20134.97
2023-04-30T18:21:47.852Z,20132.94
2023-04-30T18:24:15.985Z,20159.34
2023-04-30T18:26:44.143Z,20139.03
2023-04-30T18:29:12.634Z,20112.59
2023-04-30T18:31:42.301Z,20128.88
2023-04-30T18:34:10.571Z,20137.00
2023-04-30T18:36:38.777Z,20116.66
2023-04-30T18:39:06.988Z,20126.84
2023-04-30T18:41:35.117Z,20086.19
2023-04-30T18:44:03.893Z,20090.25
2023-04-30T18:46:32.150Z,20031.31
2023-04-30T18:49:02.746Z,20122.78
2023-04-30T18:51:31.256Z,20065.84
2023-04-30T18:53:59.471Z,20049.59
2023-04-30T18:56:27.639Z,20067.88
2023-04-30T18:58:55.808Z,20063.81
2023-04-30T19:01:27.209Z,20039.44
2023-04-30T19:03:55.760Z,20021.16
2023-04-30T19:06:25.436Z,20023.19
2023-04-30T19:08:54.907Z,20019.13
2023-04-30T19:11:23.138Z,20067.88
2023-04-30T19:13:51.331Z,20002.84
2023-04-30T19:16:19.511Z,20053.66
2023-04-30T19:18:47.749Z,20027.25
2023-04-30T19:21:15.909Z,19988.63
2023-04-30T19:23:45.393Z,19996.75
2023-04-30T19:26:13.603Z,19986.59
2023-04-30T19:28:41.804Z,19972.38
2023-04-30T19:31:11.359Z,19980.50
2023-04-30T19:33:41.028Z,19972.38
2023-04-30T19:36:09.161Z,19952.03
2023-04-30T19:38:37.283Z,19952.03
2023-04-30T19:41:07.247Z,19941.88
2023-04-30T19:43:35.374Z,19937.81
2023-04-30T19:46:03.625Z,19921.56
2023-04-30T19:48:32.083Z,19919.53
2023-04-30T19:51:00.278Z,19937.81
2023-04-30T19:53:29.069Z,19909.34
2023-04-30T19:55:57.474Z,19872.78
2023-04-30T19:58:27.037Z,19870.75
2023-04-30T20:00:55.907Z,19903.25
2023-04-30T20:03:25.209Z,19882.94
2023-04-30T20:05:54.098Z,19856.53
2023-04-30T20:08:23.272Z,19838.22
2023-04-30T20:10:52.107Z,19828.06
2023-04-30T20:13:21.003Z,19838.22
2023-04-30T20:15:50.606Z,19826.03
2023-04-30T20:18:18.912Z,19824.00
2023-04-30T20:20:47.313Z,19840.25
2023-04-30T20:23:17.725Z,19793.50
2023-04-30T20:25:47.903Z,19807.75
2023-04-30T20:28:18.116Z,19746.78
2023-04-30T20:30:48.060Z,19793.50
2023-04-30T20:33:18.816Z,19809.78
2023-04-30T20:35:47.604Z,19775.22
2023-04-30T20:38:19.594Z,19799.63
2023-04-30T20:40:48.233Z,19783.34
2023-04-30T20:43:17.912Z,19742.72
2023-04-30T20:45:46.307Z,19773.19
2023-04-30T20:48:15.288Z,19758.97
2023-04-30T20:50:46.011Z,19779.28
2023-04-30T20:53:15.078Z,19761.00
2023-04-30T20:55:43.667Z,19761.00
2023-04-30T20:58:12.251Z,19765.06
2023-04-30T21:00:40.559Z,19769.13
2023-04-30T21:03:09.565Z,19803.69
2023-04-30T21:05:37.914Z,19793.50
2023-04-30T21:08:07.465Z,19815.88
2023-04-30T21:10:36.870Z,19758.97
2023-04-30T21:13:08.754Z,19756.94
2023-04-30T21:15:39.105Z,19777.25
2023-04-30T21:18:08.563Z,19769.13
2023-04-30T21:20:36.848Z,19752.88
2023-04-30T21:23:05.010Z,19793.50
2023-04-30T21:25:36.759Z,19761.00
2023-04-30T21:28:04.966Z,19777.25
2023-04-30T21:30:33.157Z,19789.44
2023-04-30T21:33:01.321Z,19765.06
2023-04-30T21:35:32.875Z,19748.81
2023-04-30T21:38:01.082Z,19781.31
2023-04-30T21:40:32.031Z,19746.78
2023-04-30T21:43:01.870Z,19758.97
2023-04-30T21:45:30.745Z,19748.81
2023-04-30T21:47:58.972Z,19787.41
2023-04-30T21:50:28.110Z,19789.44
2023-04-30T21:52:56.280Z,19763.03
2023-04-30T21:55:24.666Z,19763.03
2023-04-30T21:57:52.784Z,19732.53
2023-04-30T22:00:22.458Z,19730.50
2023-04-30T22:02:51.093Z,19748.81
2023-04-30T22:05:21.023Z,19787.41
2023-04-30T22:07:49.255Z,19746.78
2023-04-30T22:10:17.490Z,19746.78
2023-04-30T22:12:47.715Z,19752.88
2023-04-30T22:15:16.690Z,19704.09
2023-04-30T22:17:47.551Z,19732.53
2023-04-30T22:20:15.750Z,19752.88
2023-04-30T22:22:43.974Z,19716.28
2023-04-30T22:25:12.265Z,19695.97
2023-04-30T22:27:40.418Z,19702.06
2023-04-30T22:30:09.749Z,19714.25
2023-04-30T22:32:38.458Z,19734.56
2023-04-30T22:35:11.221Z,19698.00
2023-04-30T22:37:40.283Z,19732.53
2023-04-30T22:40:09.806Z,19722.38
2023-04-30T22:42:38.124Z,19720.34
2023-04-30T22:45:08.981Z,19700.03
2023-04-30T22:47:37.708Z,19685.81
2023-04-30T22:50:09.146Z,19687.84
2023-04-30T22:52:37.279Z,19673.59
2023-04-30T22:55:06.647Z,19649.22
2023-04-30T22:57:34.848Z,19689.88
2023-04-30T23:00:02.975Z,19673.59
2023-04-30T23:02:31.104Z,19683.78
2023-04-30T23:04:59.273Z,19671.56
2023-04-30T23:07:28.770Z,19663.44
2023-04-30T23:09:57.256Z,19643.13
2023-04-30T23:12:25.695Z,19632.97
2023-04-30T23:14:53.981Z,19612.63
2023-04-30T23:17:23.314Z,19596.38
2023-04-30T23:19:52.135Z,19647.19
2023-04-30T23:22:20.657Z,19604.50
2023-04-30T23:24:50.093Z,19610.59
2023-04-30T23:27:18.788Z,19624.84
2023-04-30T23:29:46.879Z,19620.78
2023-04-30T23:32:15.016Z,19608.56
2023-04-30T23:34:43.112Z,19590.28
2023-04-30T23:37:11.224Z,19594.34
2023-04-30T23:39:39.328Z,19600.44
2023-04-30T23:42:08.851Z,19610.59
2023-04-30T23:44:36.973Z,19569.97
2023-04-30T23:47:05.673Z,19604.50
2023-04-30T23:49:33.839Z,19632.97
2023-04-30T23:52:01.930Z,19598.41
2023-04-30T23:54:30.103Z,19606.53
2023-04-30T23:56:58.619Z,19547.59
2023-04-30T23:59:28.057Z,19602.47
